createdAt,value
2022-08-22T00:01:06.715Z,32.99
2022-08-22T00:02:52.803Z,30.33
2022-08-22T00:02:55.386Z,33.13
2022-08-22T00:03:11.074Z,33.04
2022-08-22T00:03:36.501Z,33.01
2022-08-22T00:06:42.703Z,33.02
2022-08-22T00:09:31.117Z,33.03
2022-08-22T00:12:18.032Z,33.01
2022-08-22T00:15:06.110Z,32.99
2022-08-22T00:17:30.373Z,32.98
2022-08-22T00:20:05.612Z,32.94
2022-08-22T00:22:44.009Z,32.91
2022-08-22T00:25:00.128Z,32.85
2022-08-22T00:27:17.311Z,32.80
2022-08-22T00:29:35.348Z,32.76
2022-08-22T00:32:08.464Z,32.69
2022-08-22T00:34:37.640Z,32.66
2022-08-22T00:37:50.073Z,32.62
2022-08-22T00:40:54.908Z,32.61
2022-08-22T00:44:03.507Z,32.58
2022-08-22T00:47:10.911Z,32.57
2022-08-22T00:49:55.059Z,32.53
2022-08-22T00:52:32.535Z,32.47
2022-08-22T00:54:58.150Z,32.43
2022-08-22T00:57:45.036Z,32.38
2022-08-22T01:00:07.120Z,32.30
2022-08-22T01:02:34.920Z,32.27
2022-08-22T01:04:42.506Z,32.23
2022-08-22T01:07:53.373Z,32.20
2022-08-22T01:10:42.286Z,32.15
2022-08-22T01:13:07.034Z,32.12
2022-08-22T01:15:20.033Z,32.08
2022-08-22T01:18:09.267Z,32.04
2022-08-22T01:20:48.738Z,32.00
2022-08-22T01:23:20.698Z,31.97
2022-08-22T01:26:00.362Z,31.94
2022-08-22T01:28:16.118Z,31.90
2022-08-22T01:30:35.981Z,31.86
2022-08-22T01:34:02.143Z,31.83
2022-08-22T01:37:12.786Z,31.81
2022-08-22T01:39:46.634Z,31.74
2022-08-22T01:42:29.460Z,31.69
2022-08-22T01:44:52.939Z,31.64
2022-08-22T01:47:24.556Z,31.57
2022-08-22T01:49:36.886Z,31.53
2022-08-22T01:51:57.989Z,31.48
2022-08-22T01:54:12.920Z,31.42
2022-08-22T01:56:28.201Z,31.37
2022-08-22T01:58:40.363Z,31.31
2022-08-22T02:01:11.975Z,31.26
2022-08-22T02:04:21.461Z,31.19
2022-08-22T02:07:32.010Z,31.09
2022-08-22T02:10:36.894Z,31.03
2022-08-22T02:12:53.876Z,30.96
2022-08-22T02:15:13.248Z,30.92
2022-08-22T02:18:01.149Z,30.87
2022-08-22T02:20:40.528Z,30.83
2022-08-22T02:23:38.842Z,30.77
2022-08-22T02:25:54.985Z,30.69
2022-08-22T02:28:15.866Z,30.65
2022-08-22T02:30:46.212Z,30.61
2022-08-22T02:33:19.322Z,30.55
2022-08-22T02:35:32.269Z,30.50
2022-08-22T02:38:09.631Z,30.47
2022-08-22T02:40:54.927Z,30.44
2022-08-22T02:43:44.868Z,30.41
2022-08-22T02:46:33.293Z,30.38
2022-08-22T02:49:02.350Z,30.34
2022-08-22T02:51:24.045Z,30.34
2022-08-22T02:53:57.352Z,30.28
2022-08-22T02:56:37.500Z,30.27
2022-08-22T02:59:54.302Z,30.21
2022-08-22T03:02:49.658Z,30.14
2022-08-22T03:06:09.866Z,30.08
2022-08-22T03:09:18.337Z,30.02
2022-08-22T03:11:44.250Z,29.93
2022-08-22T03:14:49.723Z,29.88
2022-08-22T03:17:18.192Z,29.83
2022-08-22T03:19:41.055Z,29.76
2022-08-22T03:22:27.191Z,29.71
2022-08-22T03:25:17.333Z,29.61
2022-08-22T03:27:58.018Z,29.54
2022-08-22T03:30:14.006Z,29.46
2022-08-22T03:33:34.398Z,29.39
2022-08-22T03:36:08.406Z,29.29
2022-08-22T03:38:35.220Z,29.23
2022-08-22T03:41:05.078Z,29.16
2022-08-22T03:43:59.525Z,29.10
2022-08-22T03:46:35.077Z,29.02
2022-08-22T03:49:41.981Z,28.95
2022-08-22T03:52:24.178Z,28.84
2022-08-22T03:54:56.367Z,28.74
2022-08-22T03:57:38.338Z,28.68
2022-08-22T04:00:32.077Z,28.61
2022-08-22T04:03:40.873Z,28.55
2022-08-22T04:06:50.943Z,28.47
2022-08-22T04:09:44.246Z,28.39
2022-08-22T04:12:19.610Z,28.33
2022-08-22T04:14:58.507Z,28.27
2022-08-22T04:18:01.612Z,28.20
2022-08-22T04:21:11.592Z,28.12
2022-08-22T04:23:51.190Z,28.05
2022-08-22T04:26:11.967Z,27.98
2022-08-22T04:28:27.172Z,27.92
2022-08-22T04:31:13.271Z,27.87
2022-08-22T04:33:49.420Z,27.80
2022-08-22T04:36:27.456Z,27.73
2022-08-22T04:39:11.884Z,27.66
2022-08-22T04:42:32.210Z,27.57
2022-08-22T04:45:25.364Z,27.48
2022-08-22T04:47:57.938Z,27.40
2022-08-22T04:50:29.073Z,27.32
2022-08-22T04:53:04.812Z,27.27
2022-08-22T04:55:57.261Z,27.21
2022-08-22T04:58:59.729Z,27.15
2022-08-22T05:01:16.966Z,27.08
2022-08-22T05:03:26.517Z,27.04
2022-08-22T05:05:41.993Z,27.00
2022-08-22T05:08:14.643Z,26.98
2022-08-22T05:10:29.947Z,26.94
2022-08-22T05:12:44.613Z,26.90
2022-08-22T05:14:57.093Z,26.86
2022-08-22T05:17:07.562Z,26.80
2022-08-22T05:19:31.140Z,26.75
2022-08-22T05:21:44.941Z,26.69
2022-08-22T05:24:06.293Z,26.64
2022-08-22T05:26:41.829Z,26.60
2022-08-22T05:28:53.431Z,26.56
2022-08-22T05:31:01.117Z,26.52
2022-08-22T05:33:46.195Z,26.50
2022-08-22T05:36:22.025Z,26.47
2022-08-22T05:38:41.667Z,26.43
2022-08-22T05:40:59.993Z,26.39
2022-08-22T05:43:15.948Z,26.35
2022-08-22T05:45:39.222Z,26.30
2022-08-22T05:48:14.819Z,26.24
2022-08-22T05:50:54.320Z,26.18
2022-08-22T05:53:37.199Z,26.12
2022-08-22T05:56:25.591Z,26.05
2022-08-22T05:59:01.292Z,25.97
2022-08-22T06:01:43.175Z,25.92
2022-08-22T06:04:24.391Z,25.87
2022-08-22T06:07:21.638Z,25.83
2022-08-22T06:09:49.692Z,25.75
2022-08-22T06:12:48.491Z,25.68
2022-08-22T06:15:47.798Z,25.62
2022-08-22T06:18:17.926Z,25.53
2022-08-22T06:20:50.897Z,25.48
2022-08-22T06:23:23.673Z,25.42
2022-08-22T06:25:49.840Z,25.36
2022-08-22T06:28:15.608Z,25.33
2022-08-22T06:30:29.857Z,25.29
2022-08-22T06:32:59.094Z,25.27
2022-08-22T06:36:00.527Z,25.24
2022-08-22T06:38:22.564Z,25.19
2022-08-22T06:40:30.971Z,25.16
2022-08-22T06:42:50.146Z,25.13
2022-08-22T06:45:09.393Z,25.10
2022-08-22T06:47:49.905Z,25.06
2022-08-22T06:50:03.089Z,25.04
2022-08-22T06:52:24.850Z,25.01
2022-08-22T06:54:46.642Z,24.98
2022-08-22T06:56:57.023Z,24.94
2022-08-22T06:59:32.942Z,24.90
2022-08-22T07:01:53.111Z,24.85
2022-08-22T07:04:28.215Z,24.81
2022-08-22T07:06:45.292Z,24.76
2022-08-22T07:08:59.703Z,24.70
2022-08-22T07:11:29.263Z,24.67
2022-08-22T07:13:43.996Z,24.62
2022-08-22T07:16:33.879Z,24.57
2022-08-22T07:19:14.060Z,24.51
2022-08-22T07:21:45.285Z,24.46
2022-08-22T07:24:02.417Z,24.40
2022-08-22T07:26:44.902Z,24.36
2022-08-22T07:29:11.282Z,24.30
2022-08-22T07:31:46.779Z,24.23
2022-08-22T07:34:18.999Z,24.17
2022-08-22T07:36:49.670Z,24.11
2022-08-22T07:39:24.300Z,24.05
2022-08-22T07:41:56.141Z,24.00
2022-08-22T07:44:24.517Z,23.96
2022-08-22T07:47:00.370Z,23.91
2022-08-22T07:49:25.987Z,23.84
2022-08-22T07:52:16.837Z,23.78
2022-08-22T07:54:39.680Z,23.71
2022-08-22T07:57:10.687Z,23.66
2022-08-22T07:59:23.488Z,23.60
2022-08-22T08:01:36.816Z,23.57
2022-08-22T08:03:44.938Z,23.53
2022-08-22T08:06:26.951Z,23.50
2022-08-22T08:08:43.034Z,23.47
2022-08-22T08:10:51.959Z,23.44
2022-08-22T08:13:04.757Z,23.40
2022-08-22T08:15:20.061Z,23.37
2022-08-22T08:17:41.444Z,23.34
2022-08-22T08:19:51.870Z,23.31
2022-08-22T08:22:22.532Z,23.27
2022-08-22T08:24:42.591Z,23.24
2022-08-22T08:27:18.828Z,23.22
2022-08-22T08:29:38.447Z,23.18
2022-08-22T08:31:49.313Z,23.15
2022-08-22T08:34:29.431Z,23.14
2022-08-22T08:36:59.925Z,23.12
2022-08-22T08:39:23.361Z,23.10
2022-08-22T08:42:02.651Z,23.08
2022-08-22T08:44:51.600Z,23.06
2022-08-22T08:47:29.190Z,23.03
2022-08-22T08:49:51.081Z,22.99
2022-08-22T08:52:09.965Z,22.97
2022-08-22T08:54:44.819Z,22.95
2022-08-22T08:57:49.599Z,22.93
2022-08-22T09:00:29.127Z,22.90
2022-08-22T09:03:06.918Z,22.88
2022-08-22T09:06:14.023Z,22.85
2022-08-22T09:08:59.303Z,22.80
2022-08-22T09:11:46.210Z,22.75
2022-08-22T09:14:12.034Z,22.71
2022-08-22T09:17:25.874Z,22.63
2022-08-22T09:20:29.084Z,22.57
2022-08-22T09:22:50.527Z,22.52
2022-08-22T09:25:06.246Z,22.50
2022-08-22T09:27:45.502Z,22.47
2022-08-22T09:30:12.380Z,22.44
2022-08-22T09:33:08.614Z,22.40
2022-08-22T09:35:26.425Z,22.35
2022-08-22T09:38:02.999Z,22.29
2022-08-22T09:41:02.223Z,22.25
2022-08-22T09:43:33.696Z,22.22
2022-08-22T09:46:32.124Z,22.20
2022-08-22T09:49:35.030Z,22.18
2022-08-22T09:51:43.961Z,22.16
2022-08-22T09:53:58.696Z,22.13
2022-08-22T09:56:57.102Z,22.12
2022-08-22T09:59:22.704Z,22.10
2022-08-22T10:01:52.093Z,22.07
2022-08-22T10:04:28.578Z,22.05
2022-08-22T10:06:50.090Z,22.01
2022-08-22T10:09:11.902Z,21.97
2022-08-22T10:12:03.422Z,21.95
2022-08-22T10:14:52.092Z,21.90
2022-08-22T10:17:41.034Z,21.85
2022-08-22T10:20:02.661Z,21.80
2022-08-22T10:23:07.933Z,21.77
2022-08-22T10:25:33.530Z,21.72
2022-08-22T10:28:19.432Z,21.69
2022-08-22T10:30:35.458Z,21.65
2022-08-22T10:32:54.103Z,21.62
2022-08-22T10:35:15.326Z,21.59
2022-08-22T10:38:02.475Z,21.54
2022-08-22T10:41:03.727Z,21.50
2022-08-22T10:44:03.871Z,21.45
2022-08-22T10:46:42.402Z,21.41
2022-08-22T10:49:07.869Z,21.36
2022-08-22T10:52:19.777Z,21.34
2022-08-22T10:55:19.197Z,21.29
2022-08-22T10:57:31.383Z,21.25
2022-08-22T10:59:51.892Z,21.22
2022-08-22T11:02:31.033Z,21.18
2022-08-22T11:05:31.231Z,21.14
2022-08-22T11:08:00.526Z,21.07
2022-08-22T11:11:03.993Z,21.02
2022-08-22T11:13:16.336Z,20.96
2022-08-22T11:15:36.174Z,20.93
2022-08-22T11:18:23.229Z,20.89
2022-08-22T11:20:50.901Z,20.85
2022-08-22T11:23:01.612Z,20.80
2022-08-22T11:26:14.679Z,20.75
2022-08-22T11:29:14.309Z,20.69
2022-08-22T11:31:22.677Z,20.64
2022-08-22T11:33:55.947Z,20.61
2022-08-22T11:36:57.490Z,20.55
2022-08-22T11:39:18.993Z,20.51
2022-08-22T11:41:40.100Z,20.48
2022-08-22T11:44:00.785Z,20.45
2022-08-22T11:46:36.706Z,20.42
2022-08-22T11:49:07.670Z,20.36
2022-08-22T11:52:02.812Z,20.32
2022-08-22T11:54:58.191Z,20.29
2022-08-22T11:57:19.545Z,20.26
2022-08-22T12:00:04.779Z,20.24
2022-08-22T12:02:36.424Z,20.23
2022-08-22T12:04:59.342Z,20.20
2022-08-22T12:07:53.646Z,20.18
2022-08-22T12:10:26.800Z,20.16
2022-08-22T12:13:00.753Z,20.14
2022-08-22T12:15:15.143Z,20.10
2022-08-22T12:17:55.450Z,20.08
2022-08-22T12:20:38.764Z,20.05
2022-08-22T12:23:48.978Z,20.01
2022-08-22T12:26:41.005Z,19.96
2022-08-22T12:29:27.448Z,19.96
2022-08-22T12:32:01.682Z,19.95
2022-08-22T12:34:33.374Z,19.95
2022-08-22T12:36:47.119Z,19.94
2022-08-22T12:39:43.319Z,19.94
2022-08-22T12:42:12.571Z,19.93
2022-08-22T12:44:57.417Z,19.93
2022-08-22T12:47:26.842Z,19.95
2022-08-22T12:49:57.978Z,19.94
2022-08-22T12:52:52.274Z,19.93
2022-08-22T12:55:02.118Z,19.91
2022-08-22T12:57:30.982Z,19.89
2022-08-22T12:59:48.301Z,19.88
2022-08-22T13:01:59.469Z,19.86
2022-08-22T13:04:32.767Z,19.83
2022-08-22T13:06:41.097Z,19.80
2022-08-22T13:08:49.527Z,19.79
2022-08-22T13:11:10.057Z,19.78
2022-08-22T13:13:38.830Z,19.77
2022-08-22T13:16:20.863Z,19.73
2022-08-22T13:18:38.799Z,19.70
2022-08-22T13:20:56.470Z,19.68
2022-08-22T13:23:12.581Z,19.65
2022-08-22T13:26:07.507Z,19.63
2022-08-22T13:28:18.213Z,19.60
2022-08-22T13:30:34.686Z,19.58
2022-08-22T13:33:01.066Z,19.56
2022-08-22T13:35:14.348Z,19.56
2022-08-22T13:37:32.082Z,19.54
2022-08-22T13:39:44.072Z,19.52
2022-08-22T13:42:14.186Z,19.49
2022-08-22T13:44:40.550Z,19.47
2022-08-22T13:47:15.553Z,19.47
2022-08-22T13:49:36.502Z,19.46
2022-08-22T13:52:52.506Z,19.44
2022-08-22T13:55:19.229Z,19.45
2022-08-22T13:57:39.059Z,19.44
2022-08-22T14:00:11.198Z,19.45
2022-08-22T14:02:20.427Z,19.45
2022-08-22T14:04:42.924Z,19.46
2022-08-22T14:07:15.961Z,19.47
2022-08-22T14:10:24.538Z,19.49
2022-08-22T14:13:37.746Z,19.60
2022-08-22T14:15:46.234Z,20.61
2022-08-22T14:18:15.762Z,21.63
2022-08-22T14:20:32.397Z,22.59
2022-08-22T14:22:43.842Z,23.61
2022-08-22T14:25:00.201Z,24.51
2022-08-22T14:27:11.985Z,25.43
2022-08-22T14:29:27.038Z,26.24
2022-08-22T14:31:45.584Z,26.96
2022-08-22T14:34:04.156Z,27.55
2022-08-22T14:36:21.226Z,28.10
2022-08-22T14:39:09.195Z,28.57
2022-08-22T14:41:55.706Z,29.03
2022-08-22T14:44:20.339Z,29.53
2022-08-22T14:46:56.804Z,29.93
2022-08-22T14:49:44.150Z,30.02
2022-08-22T14:51:56.552Z,30.22
2022-08-22T14:54:28.960Z,29.88
2022-08-22T14:56:39.834Z,29.35
2022-08-22T14:59:14.900Z,29.14
2022-08-22T15:02:04.693Z,29.16
2022-08-22T15:05:05.626Z,29.53
2022-08-22T15:07:36.548Z,30.12
2022-08-22T15:10:23.090Z,30.65
2022-08-22T15:13:00.114Z,31.14
2022-08-22T15:16:03.493Z,31.54
2022-08-22T15:18:52.037Z,31.43
2022-08-22T15:21:10.336Z,30.96
2022-08-22T15:23:26.877Z,30.40
2022-08-22T15:25:47.082Z,29.63
2022-08-22T15:28:05.713Z,28.85
2022-08-22T15:30:21.011Z,28.22
2022-08-22T15:32:42.008Z,27.78
2022-08-22T15:35:16.623Z,27.41
2022-08-22T15:37:34.327Z,27.50
2022-08-22T15:40:10.757Z,27.72
2022-08-22T15:42:28.773Z,28.03
2022-08-22T15:44:49.443Z,28.29
2022-08-22T15:48:20.373Z,28.17
2022-08-22T15:51:02.627Z,28.03
2022-08-22T15:53:34.061Z,28.01
2022-08-22T15:56:35.902Z,28.00
2022-08-22T15:58:49.607Z,28.50
2022-08-22T16:01:19.196Z,28.90
2022-08-22T16:03:30.442Z,29.31
2022-08-22T16:05:37.194Z,29.61
2022-08-22T16:07:48.666Z,29.88
2022-08-22T16:10:00.206Z,30.16
2022-08-22T16:12:40.224Z,30.36
2022-08-22T16:14:56.928Z,30.50
2022-08-22T16:17:09.336Z,30.49
2022-08-22T16:19:27.682Z,30.47
2022-08-22T16:22:08.837Z,30.34
2022-08-22T16:24:18.197Z,30.18
2022-08-22T16:26:31.417Z,30.03
2022-08-22T16:29:17.343Z,29.96
2022-08-22T16:31:42.629Z,29.92
2022-08-22T16:33:50.106Z,29.91
2022-08-22T16:36:19.502Z,29.88
2022-08-22T16:38:45.444Z,29.92
2022-08-22T16:40:52.225Z,29.97
2022-08-22T16:43:18.846Z,30.00
2022-08-22T16:45:40.101Z,30.02
2022-08-22T16:47:58.159Z,30.03
2022-08-22T16:50:26.367Z,30.03
2022-08-22T16:52:53.353Z,30.01
2022-08-22T16:55:32.328Z,29.91
2022-08-22T16:58:05.379Z,29.90
2022-08-22T17:00:44.844Z,29.81
2022-08-22T17:03:27.464Z,29.81
2022-08-22T17:06:34.894Z,29.71
2022-08-22T17:09:10.642Z,29.66
2022-08-22T17:11:57.300Z,29.63
2022-08-22T17:14:29.186Z,29.60
2022-08-22T17:17:11.268Z,29.50
2022-08-22T17:19:35.755Z,29.47
2022-08-22T17:22:08.151Z,29.53
2022-08-22T17:24:53.808Z,29.58
2022-08-22T17:27:18.421Z,29.67
2022-08-22T17:29:33.311Z,29.68
2022-08-22T17:32:02.485Z,29.72
2022-08-22T17:35:00.018Z,29.72
2022-08-22T17:38:08.895Z,29.77
2022-08-22T17:40:32.419Z,29.72
2022-08-22T17:43:09.196Z,29.61
2022-08-22T17:45:53.851Z,29.48
2022-08-22T17:48:36.047Z,29.51
2022-08-22T17:51:00.277Z,29.69
2022-08-22T17:53:43.349Z,29.83
2022-08-22T17:56:24.055Z,29.99
2022-08-22T17:58:51.997Z,30.01
2022-08-22T18:01:14.972Z,30.03
2022-08-22T18:04:34.038Z,30.01
2022-08-22T18:07:21.170Z,29.98
2022-08-22T18:09:48.536Z,30.02
2022-08-22T18:12:18.405Z,29.96
2022-08-22T18:14:34.988Z,29.97
2022-08-22T18:17:14.240Z,29.95
2022-08-22T18:19:42.043Z,29.87
2022-08-22T18:21:59.886Z,29.65
2022-08-22T18:24:12.056Z,29.64
2022-08-22T18:26:46.552Z,29.64
2022-08-22T18:29:09.549Z,29.45
2022-08-22T18:31:49.897Z,29.32
2022-08-22T18:34:30.248Z,29.31
2022-08-22T18:36:58.912Z,29.26
2022-08-22T18:39:32.973Z,29.13
2022-08-22T18:42:16.490Z,29.06
2022-08-22T18:44:33.877Z,28.92
2022-08-22T18:47:05.295Z,28.90
2022-08-22T18:49:49.471Z,28.98
2022-08-22T18:52:30.787Z,29.07
2022-08-22T18:55:23.639Z,29.22
2022-08-22T18:57:57.352Z,29.43
2022-08-22T19:00:22.727Z,29.60
2022-08-22T19:03:25.235Z,29.82
2022-08-22T19:06:20.613Z,30.02
2022-08-22T19:09:40.400Z,30.28
2022-08-22T19:12:41.189Z,30.54
2022-08-22T19:15:26.364Z,30.81
2022-08-22T19:17:57.328Z,31.00
2022-08-22T19:20:51.944Z,31.11
2022-08-22T19:23:37.237Z,31.27
2022-08-22T19:26:32.122Z,31.50
2022-08-22T19:28:48.343Z,31.74
2022-08-22T19:31:45.256Z,31.93
2022-08-22T19:34:40.077Z,32.13
2022-08-22T19:37:36.084Z,32.08
2022-08-22T19:40:08.652Z,31.87
2022-08-22T19:42:40.852Z,31.80
2022-08-22T19:45:30.142Z,31.80
2022-08-22T19:48:19.873Z,31.95
2022-08-22T19:50:34.144Z,32.16
2022-08-22T19:52:59.973Z,32.33
2022-08-22T19:55:24.166Z,32.44
2022-08-22T19:58:09.523Z,32.58
2022-08-22T20:01:36.654Z,32.70
2022-08-22T20:04:21.232Z,32.73
2022-08-22T20:07:28.946Z,32.73
2022-08-22T20:10:28.770Z,32.78
2022-08-22T20:13:25.793Z,32.86
2022-08-22T20:15:35.242Z,32.94
2022-08-22T20:20:43.670Z,33.11
2022-08-22T20:23:02.584Z,33.21
2022-08-22T20:25:17.123Z,33.24
2022-08-22T20:27:54.354Z,33.17
2022-08-22T20:30:44.568Z,33.08
2022-08-22T20:32:58.244Z,33.01
2022-08-22T20:35:22.946Z,32.94
2022-08-22T20:38:08.649Z,32.86
2022-08-22T20:41:16.141Z,32.81
2022-08-22T20:43:40.836Z,32.90
2022-08-22T20:46:43.894Z,32.99
2022-08-22T20:48:59.102Z,33.12
2022-08-22T20:51:15.502Z,33.23
2022-08-22T20:53:37.896Z,33.32
2022-08-22T20:55:58.883Z,33.41
2022-08-22T20:58:37.795Z,33.52
2022-08-22T21:00:52.619Z,33.61
2022-08-22T21:03:28.568Z,33.66
2022-08-22T21:05:44.294Z,33.71
2022-08-22T21:08:32.482Z,33.71
2022-08-22T21:10:58.615Z,33.66
2022-08-22T21:13:11.185Z,33.63
2022-08-22T21:15:39.112Z,33.64
2022-08-22T21:17:53.096Z,33.64
2022-08-22T21:20:32.319Z,33.58
2022-08-22T21:22:54.286Z,33.51
2022-08-22T21:25:41.330Z,33.49
2022-08-22T21:28:01.085Z,33.48
2022-08-22T21:30:13.954Z,33.50
2022-08-22T21:32:56.209Z,33.49
2022-08-22T21:35:11.635Z,33.47
2022-08-22T21:37:50.529Z,33.41
2022-08-22T21:40:25.066Z,33.37
2022-08-22T21:42:50.155Z,33.36
2022-08-22T21:45:13.727Z,33.29
2022-08-22T21:47:39.133Z,33.16
2022-08-22T21:50:21.231Z,33.15
2022-08-22T21:52:38.141Z,33.12
2022-08-22T21:54:56.302Z,33.11
2022-08-22T21:57:17.346Z,33.10
2022-08-22T21:59:51.593Z,33.14
2022-08-22T22:02:48.084Z,33.19
2022-08-22T22:05:27.638Z,33.25
2022-08-22T22:07:46.732Z,33.25
2022-08-22T22:10:34.215Z,33.23
2022-08-22T22:13:18.159Z,33.17
2022-08-22T22:15:27.791Z,33.12
2022-08-22T22:17:53.522Z,33.03
2022-08-22T22:20:17.858Z,33.02
2022-08-22T22:22:25.254Z,33.05
2022-08-22T22:24:43.421Z,33.06
2022-08-22T22:26:52.471Z,33.09
2022-08-22T22:29:00.342Z,33.14
2022-08-22T22:31:42.855Z,33.20
2022-08-22T22:34:20.436Z,33.24
2022-08-22T22:36:47.943Z,33.24
2022-08-22T22:39:00.840Z,33.24
2022-08-22T22:41:26.392Z,33.23
2022-08-22T22:43:49.323Z,33.31
2022-08-22T22:46:11.140Z,33.30
2022-08-22T22:48:32.845Z,33.35
2022-08-22T22:50:51.798Z,33.33
2022-08-22T22:53:19.619Z,33.32
2022-08-22T22:56:00.664Z,33.34
2022-08-22T22:58:17.847Z,33.34
2022-08-22T23:00:53.010Z,33.30
2022-08-22T23:03:09.700Z,33.29
2022-08-22T23:05:22.997Z,33.28
2022-08-22T23:07:39.513Z,33.28
2022-08-22T23:09:46.573Z,33.29
2022-08-22T23:11:59.191Z,33.29
2022-08-22T23:14:09.142Z,33.30
2022-08-22T23:16:26.889Z,33.31
2022-08-22T23:18:43.548Z,33.32
2022-08-22T23:20:54.205Z,33.30
2022-08-22T23:23:20.055Z,33.28
2022-08-22T23:25:40.784Z,33.26
2022-08-22T23:28:07.511Z,33.22
2022-08-22T23:30:34.289Z,33.17
2022-08-22T23:33:18.698Z,33.16
2022-08-22T23:35:42.553Z,33.13
2022-08-22T23:37:59.129Z,33.12
2022-08-22T23:40:09.315Z,33.08
2022-08-22T23:42:20.590Z,33.07
2022-08-22T23:44:31.799Z,33.04
2022-08-22T23:46:43.249Z,33.01
2022-08-22T23:48:59.290Z,32.97
2022-08-22T23:51:57.701Z,32.93
2022-08-22T23:54:13.718Z,32.88
2022-08-22T23:56:58.515Z,32.88
2022-08-22T23:59:16.776Z,32.84
